createdAt,value
2023-06-22T00:01:23.518Z,20.17
2023-06-22T00:03:50.444Z,20.06
2023-06-22T00:06:17.216Z,19.88
2023-06-22T00:08:43.906Z,19.90
2023-06-22T00:11:10.573Z,19.92
2023-06-22T00:13:37.342Z,20.03
2023-06-22T00:16:04.331Z,19.86
2023-06-22T00:18:31.876Z,19.72
2023-06-22T00:20:59.572Z,19.78
2023-06-22T00:23:27.186Z,20.06
2023-06-22T00:25:54.015Z,20.09
2023-06-22T00:28:21.146Z,20.41
2023-06-22T00:30:48.683Z,20.40
2023-06-22T00:33:17.353Z,20.47
2023-06-22T00:35:44.154Z,20.46
2023-06-22T00:38:10.934Z,20.57
2023-06-22T00:40:39.128Z,20.54
2023-06-22T00:43:06.434Z,20.30
2023-06-22T00:45:33.179Z,20.24
2023-06-22T00:48:00.678Z,20.02
2023-06-22T00:50:34.789Z,20.08
2023-06-22T00:53:10.600Z,20.17
2023-06-22T00:55:52.582Z,20.28
2023-06-22T00:58:22.902Z,20.26
2023-06-22T01:00:50.098Z,19.97
2023-06-22T01:03:18.327Z,19.84
2023-06-22T01:05:47.840Z,19.85
2023-06-22T01:08:23.213Z,19.63
2023-06-22T01:10:59.803Z,19.60
2023-06-22T01:13:38.634Z,19.41
2023-06-22T01:16:08.833Z,19.18
2023-06-22T01:18:38.737Z,19.25
2023-06-22T01:21:10.922Z,19.13
2023-06-22T01:23:55.032Z,19.04
2023-06-22T01:26:44.879Z,18.90
2023-06-22T01:29:14.893Z,18.99
2023-06-22T01:31:43.860Z,19.12
2023-06-22T01:34:11.975Z,18.97
2023-06-22T01:36:40.100Z,18.81
2023-06-22T01:39:08.406Z,18.76
2023-06-22T01:41:38.192Z,18.75
2023-06-22T01:44:08.422Z,18.90
2023-06-22T01:46:36.444Z,18.82
2023-06-22T01:49:07.271Z,18.92
2023-06-22T01:51:38.163Z,19.10
2023-06-22T01:54:07.596Z,19.33
2023-06-22T01:56:34.187Z,19.40
2023-06-22T01:59:34.005Z,19.31
2023-06-22T02:02:08.962Z,19.01
2023-06-22T02:04:44.480Z,18.93
2023-06-22T02:07:15.316Z,18.82
2023-06-22T02:09:45.458Z,18.76
2023-06-22T02:12:14.840Z,18.52
2023-06-22T02:14:42.007Z,18.59
2023-06-22T02:17:16.649Z,18.76
2023-06-22T02:19:43.210Z,18.66
2023-06-22T02:22:10.304Z,18.46
2023-06-22T02:24:36.863Z,18.31
2023-06-22T02:27:03.805Z,18.27
2023-06-22T02:29:30.779Z,18.27
2023-06-22T02:31:57.404Z,18.18
2023-06-22T02:34:24.081Z,18.18
2023-06-22T02:36:53.770Z,18.25
2023-06-22T02:39:25.534Z,18.24
2023-06-22T02:41:55.800Z,18.20
2023-06-22T02:44:22.744Z,18.44
2023-06-22T02:46:49.531Z,18.53
2023-06-22T02:49:16.409Z,18.61
2023-06-22T02:51:48.475Z,18.42
2023-06-22T02:54:15.112Z,18.24
2023-06-22T02:56:44.878Z,18.31
2023-06-22T02:59:12.077Z,18.19
2023-06-22T03:01:41.783Z,18.15
2023-06-22T03:04:09.374Z,18.07
2023-06-22T03:06:37.272Z,18.03
2023-06-22T03:09:05.809Z,18.05
2023-06-22T03:11:33.103Z,18.02
2023-06-22T03:14:00.325Z,18.19
2023-06-22T03:16:27.065Z,18.11
2023-06-22T03:18:57.084Z,18.09
2023-06-22T03:21:24.647Z,17.96
2023-06-22T03:23:51.389Z,17.88
2023-06-22T03:26:19.167Z,17.92
2023-06-22T03:28:45.760Z,17.90
2023-06-22T03:31:12.374Z,17.94
2023-06-22T03:33:39.061Z,17.92
2023-06-22T03:36:05.707Z,17.88
2023-06-22T03:38:32.477Z,18.15
2023-06-22T03:40:59.058Z,18.45
2023-06-22T03:43:25.712Z,18.39
2023-06-22T03:45:52.319Z,18.25
2023-06-22T03:48:19.012Z,18.22
2023-06-22T03:50:45.735Z,18.22
2023-06-22T03:53:12.329Z,18.26
2023-06-22T03:55:38.997Z,18.19
2023-06-22T03:58:06.980Z,18.16
2023-06-22T04:00:33.771Z,18.19
2023-06-22T04:03:00.467Z,18.17
2023-06-22T04:05:27.196Z,18.42
2023-06-22T04:07:53.798Z,18.46
2023-06-22T04:10:20.369Z,18.47
2023-06-22T04:12:46.937Z,18.64
2023-06-22T04:15:13.508Z,18.85
2023-06-22T04:17:40.158Z,18.59
2023-06-22T04:20:07.830Z,18.49
2023-06-22T04:22:34.418Z,18.40
2023-06-22T04:25:01.073Z,18.45
2023-06-22T04:27:27.647Z,18.44
2023-06-22T04:29:54.223Z,18.54
2023-06-22T04:32:20.904Z,18.59
2023-06-22T04:34:47.509Z,18.59
2023-06-22T04:37:16.541Z,18.62
2023-06-22T04:39:44.433Z,18.77
2023-06-22T04:42:11.109Z,18.87
2023-06-22T04:44:37.741Z,18.90
2023-06-22T04:47:05.132Z,18.89
2023-06-22T04:49:37.074Z,19.09
2023-06-22T04:52:08.726Z,19.25
2023-06-22T04:54:37.448Z,19.33
2023-06-22T04:57:06.327Z,19.67
2023-06-22T04:59:33.027Z,19.76
2023-06-22T05:02:03.344Z,19.98
2023-06-22T05:04:34.180Z,19.73
2023-06-22T05:07:01.575Z,19.66
2023-06-22T05:09:28.406Z,19.66
2023-06-22T05:11:55.362Z,19.86
2023-06-22T05:14:22.065Z,20.11
2023-06-22T05:16:50.215Z,20.39
2023-06-22T05:19:16.802Z,20.66
2023-06-22T05:21:43.380Z,20.77
2023-06-22T05:24:09.960Z,20.80
2023-06-22T05:26:37.062Z,20.57
2023-06-22T05:29:04.156Z,20.60
2023-06-22T05:31:31.142Z,20.49
2023-06-22T05:33:57.968Z,20.74
2023-06-22T05:36:27.448Z,20.81
2023-06-22T05:38:54.349Z,20.80
2023-06-22T05:41:21.063Z,20.91
2023-06-22T05:43:47.930Z,20.91
2023-06-22T05:46:14.897Z,20.93
2023-06-22T05:48:41.656Z,20.91
2023-06-22T05:51:08.266Z,21.27
2023-06-22T05:53:34.945Z,21.46
2023-06-22T05:56:01.566Z,21.56
2023-06-22T05:58:28.159Z,21.75
2023-06-22T06:00:54.913Z,21.56
2023-06-22T06:03:21.483Z,21.60
2023-06-22T06:05:48.763Z,21.57
2023-06-22T06:08:15.432Z,21.90
2023-06-22T06:10:42.279Z,22.01
2023-06-22T06:13:09.192Z,22.02
2023-06-22T06:15:35.942Z,22.16
2023-06-22T06:18:05.491Z,22.66
2023-06-22T06:20:32.815Z,22.93
2023-06-22T06:22:59.871Z,23.48
2023-06-22T06:25:27.149Z,23.92
2023-06-22T06:27:55.777Z,23.75
2023-06-22T06:30:23.368Z,23.54
2023-06-22T06:32:50.645Z,23.78
2023-06-22T06:35:17.970Z,23.75
2023-06-22T06:37:46.571Z,24.01
2023-06-22T06:40:14.784Z,24.16
2023-06-22T06:42:45.516Z,24.39
2023-06-22T06:45:20.540Z,24.62
2023-06-22T06:47:47.959Z,24.54
2023-06-22T06:50:14.713Z,24.51
2023-06-22T06:52:41.587Z,24.10
2023-06-22T06:55:09.317Z,23.71
2023-06-22T06:57:36.340Z,24.04
2023-06-22T07:00:03.707Z,23.96
2023-06-22T07:02:30.455Z,23.51
2023-06-22T07:04:57.092Z,23.61
2023-06-22T07:07:24.081Z,23.83
2023-06-22T07:09:50.730Z,23.80
2023-06-22T07:12:17.358Z,23.77
2023-06-22T07:14:43.945Z,24.06
2023-06-22T07:17:10.519Z,23.95
2023-06-22T07:19:37.160Z,24.18
2023-06-22T07:22:04.066Z,24.35
2023-06-22T07:24:30.824Z,24.67
2023-06-22T07:27:00.198Z,25.12
2023-06-22T07:29:27.934Z,25.53
2023-06-22T07:31:54.586Z,25.96
2023-06-22T07:34:21.348Z,26.10
2023-06-22T07:36:48.396Z,26.52
2023-06-22T07:39:15.806Z,26.77
2023-06-22T07:41:44.664Z,26.61
2023-06-22T07:44:11.318Z,26.49
2023-06-22T07:46:37.981Z,26.53
2023-06-22T07:49:04.674Z,26.38
2023-06-22T07:51:31.260Z,26.51
2023-06-22T07:53:57.932Z,26.66
2023-06-22T07:56:24.596Z,26.90
2023-06-22T07:58:51.340Z,26.79
2023-06-22T08:01:18.561Z,26.73
2023-06-22T08:03:45.309Z,26.37
2023-06-22T08:06:12.062Z,26.56
2023-06-22T08:08:40.127Z,26.50
2023-06-22T08:11:18.650Z,26.78
2023-06-22T08:13:45.636Z,27.09
2023-06-22T08:16:14.232Z,27.28
2023-06-22T08:18:40.881Z,27.11
2023-06-22T08:21:07.575Z,27.57
2023-06-22T08:23:37.254Z,27.51
2023-06-22T08:26:03.915Z,27.52
2023-06-22T08:28:30.571Z,27.41
2023-06-22T08:30:57.421Z,27.29
2023-06-22T08:33:29.566Z,27.03
2023-06-22T08:35:56.735Z,27.15
2023-06-22T08:38:23.364Z,27.13
2023-06-22T08:40:50.134Z,27.06
2023-06-22T08:43:17.066Z,26.92
2023-06-22T08:45:43.774Z,26.92
2023-06-22T08:48:11.982Z,26.89
2023-06-22T08:50:38.615Z,26.91
2023-06-22T08:53:05.257Z,26.70
2023-06-22T08:55:32.129Z,26.80
2023-06-22T08:57:59.162Z,26.96
2023-06-22T09:00:25.991Z,27.07
2023-06-22T09:02:52.791Z,27.12
2023-06-22T09:05:21.680Z,27.21
2023-06-22T09:07:51.654Z,27.21
2023-06-22T09:10:21.772Z,27.39
2023-06-22T09:12:51.629Z,27.54
2023-06-22T09:15:19.001Z,27.54
2023-06-22T09:17:47.989Z,27.43
2023-06-22T09:20:15.890Z,27.58
2023-06-22T09:22:42.818Z,27.70
2023-06-22T09:25:09.862Z,27.74
2023-06-22T09:27:36.506Z,27.94
2023-06-22T09:30:04.719Z,28.14
2023-06-22T09:32:31.400Z,28.29
2023-06-22T09:34:58.235Z,28.47
2023-06-22T09:37:24.859Z,28.32
2023-06-22T09:39:51.521Z,28.19
2023-06-22T09:42:18.139Z,28.31
2023-06-22T09:44:44.731Z,28.26
2023-06-22T09:47:11.378Z,28.33
2023-06-22T09:49:48.106Z,28.85
2023-06-22T09:52:15.662Z,29.06
2023-06-22T09:54:42.304Z,29.57
2023-06-22T09:57:08.917Z,30.09
2023-06-22T09:59:35.595Z,30.19
2023-06-22T10:02:02.309Z,30.24
2023-06-22T10:04:29.339Z,30.28
2023-06-22T10:06:56.081Z,30.19
2023-06-22T10:09:22.720Z,30.29
2023-06-22T10:11:49.469Z,30.18
2023-06-22T10:14:16.278Z,29.94
2023-06-22T10:16:42.969Z,30.04
2023-06-22T10:19:09.723Z,30.16
2023-06-22T10:21:36.355Z,30.64
2023-06-22T10:24:07.671Z,30.60
2023-06-22T10:26:35.272Z,30.74
2023-06-22T10:29:15.926Z,30.63
2023-06-22T10:31:44.094Z,30.44
2023-06-22T10:34:10.835Z,31.03
2023-06-22T10:36:37.533Z,31.34
2023-06-22T10:39:04.533Z,31.19
2023-06-22T10:41:32.038Z,31.68
2023-06-22T10:43:59.229Z,30.65
2023-06-22T10:46:29.231Z,30.99
2023-06-22T10:48:58.169Z,31.12
2023-06-22T10:51:24.895Z,30.37
2023-06-22T10:53:52.179Z,30.73
2023-06-22T10:56:19.756Z,29.90
2023-06-22T10:58:46.947Z,30.19
2023-06-22T11:01:30.031Z,30.36
2023-06-22T11:04:00.820Z,30.03
2023-06-22T11:06:27.607Z,29.20
2023-06-22T11:09:04.419Z,30.04
2023-06-22T11:11:33.996Z,30.80
2023-06-22T11:14:00.858Z,31.79
2023-06-22T11:16:28.372Z,31.50
2023-06-22T11:18:55.133Z,32.41
2023-06-22T11:21:21.792Z,31.88
2023-06-22T11:23:48.462Z,30.80
2023-06-22T11:26:15.242Z,31.43
2023-06-22T11:28:41.992Z,31.23
2023-06-22T11:31:24.368Z,31.77
2023-06-22T11:33:52.636Z,32.72
2023-06-22T11:36:20.016Z,33.03
2023-06-22T11:38:46.770Z,32.15
2023-06-22T11:41:13.449Z,32.48
2023-06-22T11:43:40.103Z,32.86
2023-06-22T11:46:07.331Z,33.03
2023-06-22T11:48:36.557Z,32.04
2023-06-22T11:51:04.163Z,32.35
2023-06-22T11:53:31.249Z,32.11
2023-06-22T11:55:57.981Z,32.78
2023-06-22T11:58:24.649Z,32.98
2023-06-22T12:00:52.617Z,32.70
2023-06-22T12:03:20.640Z,33.30
2023-06-22T12:05:47.672Z,33.38
2023-06-22T12:08:15.099Z,33.26
2023-06-22T12:10:42.063Z,33.65
2023-06-22T12:13:13.350Z,34.11
2023-06-22T12:15:40.094Z,32.83
2023-06-22T12:18:06.816Z,33.51
2023-06-22T12:20:33.710Z,33.35
2023-06-22T12:23:00.409Z,33.69
2023-06-22T12:25:27.076Z,34.18
2023-06-22T12:27:53.784Z,34.97
2023-06-22T12:30:20.516Z,36.18
2023-06-22T12:32:47.320Z,37.59
2023-06-22T12:35:15.367Z,36.79
2023-06-22T12:37:45.301Z,37.06
2023-06-22T12:40:12.380Z,38.30
2023-06-22T12:42:39.025Z,38.86
2023-06-22T12:45:06.557Z,34.82
2023-06-22T12:47:33.230Z,36.35
2023-06-22T12:49:59.931Z,37.95
2023-06-22T12:52:26.971Z,38.49
2023-06-22T12:54:55.733Z,37.51
2023-06-22T12:57:23.018Z,35.49
2023-06-22T12:59:49.753Z,36.00
2023-06-22T13:02:16.565Z,38.29
2023-06-22T13:04:44.237Z,37.72
2023-06-22T13:07:21.590Z,36.70
2023-06-22T13:09:53.068Z,36.88
2023-06-22T13:12:23.987Z,36.78
2023-06-22T13:14:50.839Z,37.22
2023-06-22T13:17:17.555Z,38.41
2023-06-22T13:19:44.214Z,37.76
2023-06-22T13:22:44.137Z,38.12
2023-06-22T13:25:14.257Z,38.11
2023-06-22T13:27:41.955Z,38.63
2023-06-22T13:33:09.191Z,40.06
2023-06-22T13:35:38.934Z,38.91
2023-06-22T13:38:05.613Z,39.39
2023-06-22T13:40:32.539Z,41.05
2023-06-22T13:42:59.146Z,39.91
2023-06-22T13:45:25.924Z,40.35
2023-06-22T13:47:52.532Z,39.84
2023-06-22T13:50:19.522Z,40.23
2023-06-22T13:52:46.101Z,39.74
2023-06-22T13:55:15.203Z,41.60
2023-06-22T13:57:42.011Z,38.34
2023-06-22T14:00:09.517Z,40.58
2023-06-22T14:02:36.267Z,37.53
2023-06-22T14:05:03.750Z,39.93
2023-06-22T14:07:30.399Z,37.98
2023-06-22T14:09:57.061Z,36.55
2023-06-22T14:12:23.636Z,37.35
2023-06-22T14:14:50.248Z,36.55
2023-06-22T14:17:17.002Z,37.37
2023-06-22T14:19:43.591Z,39.87
2023-06-22T14:22:10.265Z,41.16
2023-06-22T14:24:36.893Z,42.26
2023-06-22T14:27:04.472Z,42.79
2023-06-22T14:29:31.108Z,40.17
2023-06-22T14:32:00.788Z,39.88
2023-06-22T14:34:27.418Z,37.72
2023-06-22T14:36:53.984Z,38.79
2023-06-22T14:39:22.109Z,39.52
2023-06-22T14:41:51.250Z,40.26
2023-06-22T14:44:18.276Z,41.80
2023-06-22T14:46:44.939Z,41.40
2023-06-22T14:49:11.707Z,40.98
2023-06-22T14:51:38.406Z,42.98
2023-06-22T14:54:05.151Z,41.17
2023-06-22T14:56:32.944Z,40.20
2023-06-22T14:59:00.233Z,40.85
2023-06-22T15:01:26.897Z,40.09
2023-06-22T15:03:53.665Z,40.63
2023-06-22T15:06:20.283Z,41.41
2023-06-22T15:08:47.452Z,37.76
2023-06-22T15:11:14.209Z,38.25
2023-06-22T15:13:42.007Z,38.65
2023-06-22T15:16:09.326Z,38.60
2023-06-22T15:18:36.645Z,36.54
2023-06-22T15:21:05.093Z,36.62
2023-06-22T15:23:32.724Z,36.84
2023-06-22T15:26:00.161Z,37.82
2023-06-22T15:28:26.835Z,37.68
2023-06-22T15:30:53.819Z,37.29
2023-06-22T15:33:20.604Z,38.25
2023-06-22T15:35:47.392Z,35.58
2023-06-22T15:38:14.131Z,35.37
2023-06-22T15:40:40.798Z,34.88
2023-06-22T15:43:07.333Z,36.33
2023-06-22T15:45:33.978Z,39.78
2023-06-22T15:48:00.680Z,38.72
2023-06-22T15:50:27.463Z,38.49
2023-06-22T15:52:54.266Z,38.79
2023-06-22T15:55:20.905Z,39.12
2023-06-22T15:57:48.169Z,38.25
2023-06-22T16:00:18.962Z,36.19
2023-06-22T16:02:47.197Z,38.08
2023-06-22T16:05:14.239Z,37.63
2023-06-22T16:07:40.975Z,36.30
2023-06-22T16:10:08.406Z,36.24
2023-06-22T16:12:36.277Z,37.47
2023-06-22T16:15:04.970Z,37.05
2023-06-22T16:17:31.792Z,35.64
2023-06-22T16:20:00.691Z,34.58
2023-06-22T16:22:33.761Z,34.04
2023-06-22T16:25:00.459Z,33.29
2023-06-22T16:27:29.359Z,32.63
2023-06-22T16:29:56.187Z,32.71
2023-06-22T16:32:22.851Z,32.27
2023-06-22T16:34:49.508Z,32.29
2023-06-22T16:37:16.106Z,32.54
2023-06-22T16:39:42.794Z,32.98
2023-06-22T16:42:19.445Z,33.40
2023-06-22T16:44:46.307Z,34.11
2023-06-22T16:47:13.009Z,34.22
2023-06-22T16:49:39.777Z,34.38
2023-06-22T16:52:07.163Z,34.06
2023-06-22T16:54:34.554Z,34.36
2023-06-22T16:57:02.957Z,34.92
2023-06-22T16:59:29.845Z,35.40
2023-06-22T17:01:58.106Z,35.47
2023-06-22T17:04:25.745Z,35.12
2023-06-22T17:07:00.120Z,34.57
2023-06-22T17:09:57.621Z,34.14
2023-06-22T17:12:26.159Z,35.04
2023-06-22T17:14:53.576Z,34.25
2023-06-22T17:17:22.728Z,34.99
2023-06-22T17:19:49.557Z,35.16
2023-06-22T17:22:16.262Z,34.93
2023-06-22T17:24:45.689Z,34.05
2023-06-22T17:27:12.277Z,34.21
2023-06-22T17:29:38.853Z,34.10
2023-06-22T17:32:09.337Z,34.05
2023-06-22T17:34:36.557Z,33.91
2023-06-22T17:37:03.376Z,33.54
2023-06-22T17:39:30.332Z,33.17
2023-06-22T17:41:57.432Z,32.27
2023-06-22T17:44:25.911Z,30.99
2023-06-22T17:46:56.041Z,31.14
2023-06-22T17:49:27.570Z,30.55
2023-06-22T17:51:54.207Z,29.98
2023-06-22T17:54:27.587Z,29.81
2023-06-22T17:57:01.429Z,29.62
2023-06-22T17:59:30.359Z,29.57
2023-06-22T18:01:57.001Z,29.26
2023-06-22T18:04:24.406Z,29.23
2023-06-22T18:06:51.419Z,29.00
2023-06-22T18:09:18.951Z,28.81
2023-06-22T18:11:56.726Z,28.72
2023-06-22T18:14:23.456Z,28.62
2023-06-22T18:16:52.031Z,28.43
2023-06-22T18:19:19.104Z,28.29
2023-06-22T18:21:49.640Z,28.31
2023-06-22T18:24:17.881Z,28.19
2023-06-22T18:26:45.778Z,28.13
2023-06-22T18:29:13.260Z,27.92
2023-06-22T18:31:40.271Z,27.81
2023-06-22T18:34:14.965Z,27.82
2023-06-22T18:36:48.164Z,27.84
2023-06-22T18:39:16.296Z,27.73
2023-06-22T18:42:05.749Z,27.61
2023-06-22T18:44:42.070Z,27.83
2023-06-22T18:47:10.089Z,27.79
2023-06-22T18:49:50.317Z,27.63
2023-06-22T18:52:18.746Z,27.46
2023-06-22T18:54:49.940Z,27.29
2023-06-22T18:57:17.746Z,27.27
2023-06-22T18:59:46.623Z,27.27
2023-06-22T19:02:34.302Z,27.37
2023-06-22T19:05:17.033Z,27.28
2023-06-22T19:07:52.733Z,27.25
2023-06-22T19:10:30.089Z,27.16
2023-06-22T19:13:12.312Z,26.87
2023-06-22T19:15:41.853Z,26.82
2023-06-22T19:18:25.978Z,26.75
2023-06-22T19:20:54.600Z,26.80
2023-06-22T19:23:25.700Z,26.74
2023-06-22T19:25:58.113Z,26.65
2023-06-22T19:28:29.105Z,26.68
2023-06-22T19:30:58.145Z,26.61
2023-06-22T19:33:26.907Z,26.84
2023-06-22T19:35:58.044Z,26.89
2023-06-22T19:38:28.493Z,26.97
2023-06-22T19:40:55.476Z,26.79
2023-06-22T19:43:22.981Z,26.71
2023-06-22T19:45:49.715Z,26.52
2023-06-22T19:48:16.628Z,26.45
2023-06-22T19:50:45.959Z,26.46
2023-06-22T19:53:16.231Z,26.42
2023-06-22T19:55:44.513Z,26.28
2023-06-22T19:58:13.194Z,26.35
2023-06-22T20:00:40.681Z,26.25
2023-06-22T20:03:16.378Z,26.25
2023-06-22T20:05:44.841Z,26.19
2023-06-22T20:08:13.495Z,26.10
2023-06-22T20:10:40.455Z,26.24
2023-06-22T20:13:15.681Z,26.31
2023-06-22T20:15:49.461Z,26.42
2023-06-22T20:18:16.888Z,26.39
2023-06-22T20:20:48.052Z,26.19
2023-06-22T20:23:22.637Z,26.18
2023-06-22T20:25:52.994Z,26.24
2023-06-22T20:28:19.983Z,26.13
2023-06-22T20:31:17.345Z,26.16
2023-06-22T20:33:44.097Z,26.24
2023-06-22T20:36:11.726Z,26.17
2023-06-22T20:38:38.349Z,26.26
2023-06-22T20:41:08.130Z,26.25
2023-06-22T20:43:34.815Z,26.15
2023-06-22T20:46:01.501Z,26.02
2023-06-22T20:48:38.977Z,25.91
2023-06-22T20:51:07.259Z,25.92
2023-06-22T20:53:33.926Z,25.82
2023-06-22T20:56:00.506Z,25.83
2023-06-22T20:58:27.033Z,25.92
2023-06-22T21:00:55.979Z,25.99
2023-06-22T21:03:22.822Z,26.14
2023-06-22T21:05:49.482Z,26.05
2023-06-22T21:08:17.120Z,25.78
2023-06-22T21:10:43.881Z,25.68
2023-06-22T21:13:10.486Z,25.51
2023-06-22T21:15:37.054Z,25.78
2023-06-22T21:18:03.801Z,25.82
2023-06-22T21:20:30.735Z,25.96
2023-06-22T21:22:57.348Z,26.01
2023-06-22T21:25:24.004Z,25.74
2023-06-22T21:27:51.428Z,25.85
2023-06-22T21:30:18.043Z,25.87
2023-06-22T21:32:44.826Z,25.61
2023-06-22T21:35:11.992Z,25.13
2023-06-22T21:37:39.220Z,24.90
2023-06-22T21:40:07.761Z,24.69
2023-06-22T21:42:34.445Z,24.84
2023-06-22T21:45:01.042Z,24.31
2023-06-22T21:47:27.836Z,23.81
2023-06-22T21:49:54.510Z,23.60
2023-06-22T21:52:21.494Z,23.46
2023-06-22T21:54:48.128Z,23.40
2023-06-22T21:57:14.725Z,23.16
2023-06-22T21:59:41.357Z,23.10
2023-06-22T22:02:08.045Z,23.15
2023-06-22T22:04:35.852Z,23.31
2023-06-22T22:07:02.857Z,23.51
2023-06-22T22:09:29.425Z,23.72
2023-06-22T22:11:56.032Z,23.82
2023-06-22T22:14:22.617Z,23.76
2023-06-22T22:16:49.267Z,23.75
2023-06-22T22:19:16.381Z,23.63
2023-06-22T22:21:44.544Z,23.47
2023-06-22T22:24:11.280Z,23.39
2023-06-22T22:26:38.237Z,23.50
2023-06-22T22:29:05.673Z,23.51
2023-06-22T22:31:38.947Z,23.10
2023-06-22T22:34:07.184Z,22.95
2023-06-22T22:36:34.487Z,22.74
2023-06-22T22:39:01.693Z,22.57
2023-06-22T22:41:28.623Z,22.55
2023-06-22T22:43:56.658Z,22.54
2023-06-22T22:46:23.285Z,22.31
2023-06-22T22:48:49.941Z,22.06
2023-06-22T22:51:17.007Z,21.94
2023-06-22T22:53:43.857Z,21.86
2023-06-22T22:56:13.764Z,21.79
2023-06-22T22:58:40.326Z,21.77
2023-06-22T23:01:06.982Z,21.45
2023-06-22T23:03:34.441Z,21.09
2023-06-22T23:06:01.337Z,20.83
2023-06-22T23:08:27.920Z,20.66
2023-06-22T23:10:54.844Z,20.16
2023-06-22T23:13:21.491Z,19.60
2023-06-22T23:15:48.087Z,19.25
2023-06-22T23:18:14.789Z,18.74
2023-06-22T23:20:41.404Z,18.70
2023-06-22T23:23:11.104Z,18.52
2023-06-22T23:25:39.229Z,18.52
2023-06-22T23:28:06.853Z,18.45
2023-06-22T23:30:35.344Z,18.40
2023-06-22T23:33:02.101Z,18.44
2023-06-22T23:35:29.029Z,18.27
2023-06-22T23:37:55.841Z,18.11
2023-06-22T23:40:22.392Z,18.46
2023-06-22T23:42:49.926Z,18.20
2023-06-22T23:45:20.826Z,18.41
2023-06-22T23:47:51.449Z,18.17
2023-06-22T23:50:19.276Z,18.39
2023-06-22T23:52:50.079Z,18.22
2023-06-22T23:55:18.653Z,18.51
2023-06-22T23:57:46.087Z,18.26
